sensor_id;sensor_type;location;lat;lon;timestamp;temperature;humidity
23267;DHT22;11802;53.160;8.214;2022-11-15T00:01:34;7.20;99.90
23267;DHT22;11802;53.160;8.214;2022-11-15T00:04:02;7.10;99.90
23267;DHT22;11802;53.160;8.214;2022-11-15T00:06:28;7.00;99.90
23267;DHT22;11802;53.160;8.214;2022-11-15T00:08:54;6.90;99.90
23267;DHT22;11802;53.160;8.214;2022-11-15T00:11:20;6.90;99.90
23267;DHT22;11802;53.160;8.214;2022-11-15T00:13:45;6.90;99.90
23267;DHT22;11802;53.160;8.214;2022-11-15T00:16:11;6.80;99.90
23267;DHT22;11802;53.160;8.214;2022-11-15T00:18:37;6.70;99.90
23267;DHT22;11802;53.160;8.214;2022-11-15T00:21:05;6.70;99.90
23267;DHT22;11802;53.160;8.214;2022-11-15T00:23:32;6.60;99.90
23267;DHT22;11802;53.160;8.214;2022-11-15T00:25:58;6.60;99.90
23267;DHT22;11802;53.160;8.214;2022-11-15T00:28:25;6.50;99.90
23267;DHT22;11802;53.160;8.214;2022-11-15T00:30:50;6.50;99.90
23267;DHT22;11802;53.160;8.214;2022-11-15T00:33:16;6.50;99.90
23267;DHT22;11802;53.160;8.214;2022-11-15T00:35:41;6.50;99.90
23267;DHT22;11802;53.160;8.214;2022-11-15T00:38:07;6.50;99.90
23267;DHT22;11802;53.160;8.214;2022-11-15T00:40:32;6.40;99.90
23267;DHT22;11802;53.160;8.214;2022-11-15T00:42:58;6.50;99.90
23267;DHT22;11802;53.160;8.214;2022-11-15T00:45:24;6.50;99.90
23267;DHT22;11802;53.160;8.214;2022-11-15T00:47:50;6.40;99.90
23267;DHT22;11802;53.160;8.214;2022-11-15T00:50:16;6.40;99.90
23267;DHT22;11802;53.160;8.214;2022-11-15T00:52:42;6.30;99.90
23267;DHT22;11802;53.160;8.214;2022-11-15T00:55:15;6.30;99.90
23267;DHT22;11802;53.160;8.214;2022-11-15T00:57:41;6.20;99.90
23267;DHT22;11802;53.160;8.214;2022-11-15T01:00:07;6.20;99.90
23267;DHT22;11802;53.160;8.214;2022-11-15T01:02:33;6.20;99.90
23267;DHT22;11802;53.160;8.214;2022-11-15T01:04:59;6.20;99.90
23267;DHT22;11802;53.160;8.214;2022-11-15T01:07:24;6.10;99.90
23267;DHT22;11802;53.160;8.214;2022-11-15T01:09:50;6.10;99.90
23267;DHT22;11802;53.160;8.214;2022-11-15T01:12:15;6.00;99.90
23267;DHT22;11802;53.160;8.214;2022-11-15T01:14:42;6.00;99.90
23267;DHT22;11802;53.160;8.214;2022-11-15T01:17:08;5.90;99.90
23267;DHT22;11802;53.160;8.214;2022-11-15T01:19:33;5.90;99.90
23267;DHT22;11802;53.160;8.214;2022-11-15T01:21:59;5.90;99.90
23267;DHT22;11802;53.160;8.214;2022-11-15T01:24:25;5.80;99.90
23267;DHT22;11802;53.160;8.214;2022-11-15T01:26:50;5.80;99.90
23267;DHT22;11802;53.160;8.214;2022-11-15T01:29:16;5.70;99.90
23267;DHT22;11802;53.160;8.214;2022-11-15T01:31:41;5.80;99.90
23267;DHT22;11802;53.160;8.214;2022-11-15T01:34:07;5.80;99.90
23267;DHT22;11802;53.160;8.214;2022-11-15T01:36:33;5.70;99.90
23267;DHT22;11802;53.160;8.214;2022-11-15T01:38:58;5.70;99.90
23267;DHT22;11802;53.160;8.214;2022-11-15T01:41:30;5.70;99.90
23267;DHT22;11802;53.160;8.214;2022-11-15T01:46:44;5.60;99.90
23267;DHT22;11802;53.160;8.214;2022-11-15T01:49:14;5.60;99.90
23267;DHT22;11802;53.160;8.214;2022-11-15T01:51:41;5.50;99.90
23267;DHT22;11802;53.160;8.214;2022-11-15T01:54:12;5.50;99.90
23267;DHT22;11802;53.160;8.214;2022-11-15T01:56:45;5.50;99.90
23267;DHT22;11802;53.160;8.214;2022-11-15T01:59:11;5.50;99.90
23267;DHT22;11802;53.160;8.214;2022-11-15T02:01:37;5.50;99.90
23267;DHT22;11802;53.160;8.214;2022-11-15T02:04:24;5.50;99.90
23267;DHT22;11802;53.160;8.214;2022-11-15T02:06:50;5.60;99.90
23267;DHT22;11802;53.160;8.214;2022-11-15T02:09:16;5.60;99.90
23267;DHT22;11802;53.160;8.214;2022-11-15T02:11:43;5.70;99.90
23267;DHT22;11802;53.160;8.214;2022-11-15T02:14:10;5.80;99.90
23267;DHT22;11802;53.160;8.214;2022-11-15T02:22:35;6.10;99.90
23267;DHT22;11802;53.160;8.214;2022-11-15T02:28:44;6.40;99.90
23267;DHT22;11802;53.160;8.214;2022-11-15T02:39:39;6.60;99.90
23267;DHT22;11802;53.160;8.214;2022-11-15T02:42:30;6.70;99.90
23267;DHT22;11802;53.160;8.214;2022-11-15T02:45:29;6.70;99.90
23267;DHT22;11802;53.160;8.214;2022-11-15T02:47:57;6.80;99.90
23267;DHT22;11802;53.160;8.214;2022-11-15T02:50:27;6.90;99.90
23267;DHT22;11802;53.160;8.214;2022-11-15T02:52:53;6.90;99.90
23267;DHT22;11802;53.160;8.214;2022-11-15T02:58:31;7.10;99.90
23267;DHT22;11802;53.160;8.214;2022-11-15T03:09:39;7.30;99.90
23267;DHT22;11802;53.160;8.214;2022-11-15T03:12:16;7.30;99.90
23267;DHT22;11802;53.160;8.214;2022-11-15T03:14:57;7.40;99.90
23267;DHT22;11802;53.160;8.214;2022-11-15T03:17:40;7.40;99.90
23267;DHT22;11802;53.160;8.214;2022-11-15T03:20:09;7.40;99.90
23267;DHT22;11802;53.160;8.214;2022-11-15T03:22:39;7.50;99.90
23267;DHT22;11802;53.160;8.214;2022-11-15T03:25:08;7.50;99.90
23267;DHT22;11802;53.160;8.214;2022-11-15T03:27:40;7.60;99.90
23267;DHT22;11802;53.160;8.214;2022-11-15T03:30:08;7.60;99.90
23267;DHT22;11802;53.160;8.214;2022-11-15T03:32:42;7.70;99.90
23267;DHT22;11802;53.160;8.214;2022-11-15T03:35:12;7.70;99.90
23267;DHT22;11802;53.160;8.214;2022-11-15T03:40:34;7.80;99.90
23267;DHT22;11802;53.160;8.214;2022-11-15T03:43:15;7.80;99.90
23267;DHT22;11802;53.160;8.214;2022-11-15T03:46:11;7.90;99.90
23267;DHT22;11802;53.160;8.214;2022-11-15T03:48:39;7.90;99.90
23267;DHT22;11802;53.160;8.214;2022-11-15T03:51:06;8.00;99.90
23267;DHT22;11802;53.160;8.214;2022-11-15T03:53:32;8.00;99.90
23267;DHT22;11802;53.160;8.214;2022-11-15T03:55:58;8.10;99.90
23267;DHT22;11802;53.160;8.214;2022-11-15T03:58:23;8.10;99.90
23267;DHT22;11802;53.160;8.214;2022-11-15T04:00:49;8.10;99.90
23267;DHT22;11802;53.160;8.214;2022-11-15T04:03:14;8.10;99.90
23267;DHT22;11802;53.160;8.214;2022-11-15T04:05:40;8.20;99.90
23267;DHT22;11802;53.160;8.214;2022-11-15T04:08:05;8.20;99.90
23267;DHT22;11802;53.160;8.214;2022-11-15T04:10:31;8.20;99.90
23267;DHT22;11802;53.160;8.214;2022-11-15T04:12:56;8.30;99.90
23267;DHT22;11802;53.160;8.214;2022-11-15T04:15:24;8.30;99.90
23267;DHT22;11802;53.160;8.214;2022-11-15T04:20:19;8.20;99.90
23267;DHT22;11802;53.160;8.214;2022-11-15T04:23:05;8.30;99.90
23267;DHT22;11802;53.160;8.214;2022-11-15T04:25:52;8.30;99.90
23267;DHT22;11802;53.160;8.214;2022-11-15T04:28:18;8.40;99.90
23267;DHT22;11802;53.160;8.214;2022-11-15T04:30:44;8.40;99.90
23267;DHT22;11802;53.160;8.214;2022-11-15T04:33:09;8.40;99.90
23267;DHT22;11802;53.160;8.214;2022-11-15T04:35:35;8.40;99.90
23267;DHT22;11802;53.160;8.214;2022-11-15T04:38:02;8.40;99.90
23267;DHT22;11802;53.160;8.214;2022-11-15T04:40:27;8.50;99.90
23267;DHT22;11802;53.160;8.214;2022-11-15T04:42:53;8.50;99.90
23267;DHT22;11802;53.160;8.214;2022-11-15T04:45:19;8.50;99.90
23267;DHT22;11802;53.160;8.214;2022-11-15T04:47:45;8.60;99.90
23267;DHT22;11802;53.160;8.214;2022-11-15T04:50:11;8.60;99.90
23267;DHT22;11802;53.160;8.214;2022-11-15T04:52:41;8.60;99.90
23267;DHT22;11802;53.160;8.214;2022-11-15T04:55:08;8.70;99.90
23267;DHT22;11802;53.160;8.214;2022-11-15T04:57:34;8.70;99.90
23267;DHT22;11802;53.160;8.214;2022-11-15T05:00:00;8.70;99.90
23267;DHT22;11802;53.160;8.214;2022-11-15T05:02:25;8.70;99.90
23267;DHT22;11802;53.160;8.214;2022-11-15T05:05:11;8.80;99.90
23267;DHT22;11802;53.160;8.214;2022-11-15T05:07:36;8.80;99.90
23267;DHT22;11802;53.160;8.214;2022-11-15T05:10:02;8.80;99.90
23267;DHT22;11802;53.160;8.214;2022-11-15T05:12:27;8.90;99.90
23267;DHT22;11802;53.160;8.214;2022-11-15T05:14:53;8.90;99.90
23267;DHT22;11802;53.160;8.214;2022-11-15T05:17:18;8.90;99.90
23267;DHT22;11802;53.160;8.214;2022-11-15T05:19:44;9.00;99.90
23267;DHT22;11802;53.160;8.214;2022-11-15T05:22:10;9.00;99.90
23267;DHT22;11802;53.160;8.214;2022-11-15T05:24:35;9.00;99.90
23267;DHT22;11802;53.160;8.214;2022-11-15T05:27:01;9.10;99.90
23267;DHT22;11802;53.160;8.214;2022-11-15T05:29:26;9.10;99.90
23267;DHT22;11802;53.160;8.214;2022-11-15T05:31:51;9.20;99.90
23267;DHT22;11802;53.160;8.214;2022-11-15T05:34:17;9.20;99.90
23267;DHT22;11802;53.160;8.214;2022-11-15T05:36:44;9.20;99.90
23267;DHT22;11802;53.160;8.214;2022-11-15T05:39:12;9.20;99.90
23267;DHT22;11802;53.160;8.214;2022-11-15T05:41:53;9.20;99.90
23267;DHT22;11802;53.160;8.214;2022-11-15T05:44:22;9.20;99.90
23267;DHT22;11802;53.160;8.214;2022-11-15T05:46:49;9.30;99.90
23267;DHT22;11802;53.160;8.214;2022-11-15T05:49:18;9.30;99.90
23267;DHT22;11802;53.160;8.214;2022-11-15T05:51:47;9.30;99.90
23267;DHT22;11802;53.160;8.214;2022-11-15T05:54:14;9.30;99.90
23267;DHT22;11802;53.160;8.214;2022-11-15T05:56:40;9.30;99.90
23267;DHT22;11802;53.160;8.214;2022-11-15T05:59:07;9.30;99.90
23267;DHT22;11802;53.160;8.214;2022-11-15T06:01:33;9.30;99.90
23267;DHT22;11802;53.160;8.214;2022-11-15T06:03:58;9.30;99.90
23267;DHT22;11802;53.160;8.214;2022-11-15T06:06:24;9.30;99.90
23267;DHT22;11802;53.160;8.214;2022-11-15T06:08:49;9.30;99.90
23267;DHT22;11802;53.160;8.214;2022-11-15T06:11:15;9.40;99.90
23267;DHT22;11802;53.160;8.214;2022-11-15T06:13:41;9.30;99.90
23267;DHT22;11802;53.160;8.214;2022-11-15T06:16:06;9.40;99.90
23267;DHT22;11802;53.160;8.214;2022-11-15T06:18:33;9.40;99.90
23267;DHT22;11802;53.160;8.214;2022-11-15T06:20:59;9.50;99.90
23267;DHT22;11802;53.160;8.214;2022-11-15T06:23:25;9.50;99.90
23267;DHT22;11802;53.160;8.214;2022-11-15T06:25:51;9.50;99.90
23267;DHT22;11802;53.160;8.214;2022-11-15T06:28:16;9.60;99.90
23267;DHT22;11802;53.160;8.214;2022-11-15T06:30:42;9.60;99.90
23267;DHT22;11802;53.160;8.214;2022-11-15T06:33:07;9.70;99.90
23267;DHT22;11802;53.160;8.214;2022-11-15T06:35:34;9.70;99.90
23267;DHT22;11802;53.160;8.214;2022-11-15T06:38:05;9.70;99.90
23267;DHT22;11802;53.160;8.214;2022-11-15T06:40:33;9.70;99.90
23267;DHT22;11802;53.160;8.214;2022-11-15T06:42:59;9.80;99.90
23267;DHT22;11802;53.160;8.214;2022-11-15T06:45:25;9.80;99.90
23267;DHT22;11802;53.160;8.214;2022-11-15T06:47:51;9.80;99.90
23267;DHT22;11802;53.160;8.214;2022-11-15T06:50:16;9.80;99.90
23267;DHT22;11802;53.160;8.214;2022-11-15T06:52:42;9.80;99.90
23267;DHT22;11802;53.160;8.214;2022-11-15T06:55:08;9.90;99.90
23267;DHT22;11802;53.160;8.214;2022-11-15T06:57:34;9.90;99.90
23267;DHT22;11802;53.160;8.214;2022-11-15T07:00:00;9.90;99.90
23267;DHT22;11802;53.160;8.214;2022-11-15T07:02:25;10.00;99.90
23267;DHT22;11802;53.160;8.214;2022-11-15T07:04:51;10.00;99.90
23267;DHT22;11802;53.160;8.214;2022-11-15T07:07:17;10.00;99.90
23267;DHT22;11802;53.160;8.214;2022-11-15T07:09:42;10.10;99.90
23267;DHT22;11802;53.160;8.214;2022-11-15T07:12:08;10.10;99.90
23267;DHT22;11802;53.160;8.214;2022-11-15T07:14:34;10.20;99.90
23267;DHT22;11802;53.160;8.214;2022-11-15T07:16:59;10.10;99.90
23267;DHT22;11802;53.160;8.214;2022-11-15T07:19:25;10.20;99.90
23267;DHT22;11802;53.160;8.214;2022-11-15T07:21:50;10.20;99.90
23267;DHT22;11802;53.160;8.214;2022-11-15T07:24:16;10.30;99.90
23267;DHT22;11802;53.160;8.214;2022-11-15T07:26:42;10.30;99.90
23267;DHT22;11802;53.160;8.214;2022-11-15T07:29:08;10.30;99.90
23267;DHT22;11802;53.160;8.214;2022-11-15T07:31:33;10.40;99.90
23267;DHT22;11802;53.160;8.214;2022-11-15T07:34:02;10.50;99.90
23267;DHT22;11802;53.160;8.214;2022-11-15T07:36:28;10.60;99.90
23267;DHT22;11802;53.160;8.214;2022-11-15T07:38:53;10.70;99.90
23267;DHT22;11802;53.160;8.214;2022-11-15T07:41:19;10.80;99.90
23267;DHT22;11802;53.160;8.214;2022-11-15T07:43:50;10.80;99.90
23267;DHT22;11802;53.160;8.214;2022-11-15T07:46:16;10.80;99.90
23267;DHT22;11802;53.160;8.214;2022-11-15T07:48:41;10.80;99.90
23267;DHT22;11802;53.160;8.214;2022-11-15T07:51:11;10.80;99.90
23267;DHT22;11802;53.160;8.214;2022-11-15T07:53:37;10.70;99.90
23267;DHT22;11802;53.160;8.214;2022-11-15T07:56:05;10.70;99.90
23267;DHT22;11802;53.160;8.214;2022-11-15T07:58:30;10.80;99.90
23267;DHT22;11802;53.160;8.214;2022-11-15T08:00:56;10.80;99.90
23267;DHT22;11802;53.160;8.214;2022-11-15T08:03:21;10.80;99.90
23267;DHT22;11802;53.160;8.214;2022-11-15T08:05:51;10.80;99.90
23267;DHT22;11802;53.160;8.214;2022-11-15T08:08:16;10.80;99.90
23267;DHT22;11802;53.160;8.214;2022-11-15T08:10:42;10.90;99.90
23267;DHT22;11802;53.160;8.214;2022-11-15T08:13:10;10.90;99.90
23267;DHT22;11802;53.160;8.214;2022-11-15T08:15:36;11.00;99.90
23267;DHT22;11802;53.160;8.214;2022-11-15T08:18:06;11.10;99.90
23267;DHT22;11802;53.160;8.214;2022-11-15T08:20:32;11.10;99.90
23267;DHT22;11802;53.160;8.214;2022-11-15T08:23:01;11.10;99.90
23267;DHT22;11802;53.160;8.214;2022-11-15T08:25:28;11.30;99.90
23267;DHT22;11802;53.160;8.214;2022-11-15T08:27:55;11.40;99.90
23267;DHT22;11802;53.160;8.214;2022-11-15T08:30:22;11.50;99.90
23267;DHT22;11802;53.160;8.214;2022-11-15T08:32:52;11.60;99.90
23267;DHT22;11802;53.160;8.214;2022-11-15T08:35:18;11.60;99.90
23267;DHT22;11802;53.160;8.214;2022-11-15T08:37:45;11.70;99.90
23267;DHT22;11802;53.160;8.214;2022-11-15T08:40:11;11.70;99.90
23267;DHT22;11802;53.160;8.214;2022-11-15T08:42:37;11.70;99.90
23267;DHT22;11802;53.160;8.214;2022-11-15T08:45:04;11.70;99.90
23267;DHT22;11802;53.160;8.214;2022-11-15T08:47:32;11.60;99.90
23267;DHT22;11802;53.160;8.214;2022-11-15T08:49:59;11.90;99.90
23267;DHT22;11802;53.160;8.214;2022-11-15T08:52:25;11.60;99.90
23267;DHT22;11802;53.160;8.214;2022-11-15T08:54:50;11.50;99.90
23267;DHT22;11802;53.160;8.214;2022-11-15T08:57:17;11.50;99.90
23267;DHT22;11802;53.160;8.214;2022-11-15T08:59:43;11.50;99.90
23267;DHT22;11802;53.160;8.214;2022-11-15T09:02:13;11.40;99.90
23267;DHT22;11802;53.160;8.214;2022-11-15T09:04:42;11.40;99.90
23267;DHT22;11802;53.160;8.214;2022-11-15T09:07:11;11.40;99.90
23267;DHT22;11802;53.160;8.214;2022-11-15T09:09:37;11.40;99.90
23267;DHT22;11802;53.160;8.214;2022-11-15T09:12:04;11.40;99.90
23267;DHT22;11802;53.160;8.214;2022-11-15T09:14:30;11.40;99.90
23267;DHT22;11802;53.160;8.214;2022-11-15T09:16:55;11.40;99.90
23267;DHT22;11802;53.160;8.214;2022-11-15T09:19:21;11.40;99.90
23267;DHT22;11802;53.160;8.214;2022-11-15T09:21:46;11.50;99.90
23267;DHT22;11802;53.160;8.214;2022-11-15T09:24:12;11.70;99.90
23267;DHT22;11802;53.160;8.214;2022-11-15T09:26:38;11.70;99.90
23267;DHT22;11802;53.160;8.214;2022-11-15T09:29:04;11.80;99.90
23267;DHT22;11802;53.160;8.214;2022-11-15T09:31:29;11.90;99.90
23267;DHT22;11802;53.160;8.214;2022-11-15T09:33:55;11.90;99.90
23267;DHT22;11802;53.160;8.214;2022-11-15T09:36:21;12.00;99.90
23267;DHT22;11802;53.160;8.214;2022-11-15T09:38:47;12.00;99.90
23267;DHT22;11802;53.160;8.214;2022-11-15T09:46:13;12.20;99.90
23267;DHT22;11802;53.160;8.214;2022-11-15T09:51:29;12.20;99.90
23267;DHT22;11802;53.160;8.214;2022-11-15T09:54:11;12.30;99.90
23267;DHT22;11802;53.160;8.214;2022-11-15T09:56:43;12.30;99.90
23267;DHT22;11802;53.160;8.214;2022-11-15T10:04:41;12.50;99.90
23267;DHT22;11802;53.160;8.214;2022-11-15T10:07:19;12.60;99.90
23267;DHT22;11802;53.160;8.214;2022-11-15T10:12:15;12.80;99.90
23267;DHT22;11802;53.160;8.214;2022-11-15T10:14:42;12.90;99.90
23267;DHT22;11802;53.160;8.214;2022-11-15T10:22:41;13.40;99.90
23267;DHT22;11802;53.160;8.214;2022-11-15T10:27:39;13.60;99.90
23267;DHT22;11802;53.160;8.214;2022-11-15T10:30:16;13.70;99.90
23267;DHT22;11802;53.160;8.214;2022-11-15T10:32:43;13.70;99.90
23267;DHT22;11802;53.160;8.214;2022-11-15T10:35:21;13.70;99.90
23267;DHT22;11802;53.160;8.214;2022-11-15T10:37:48;13.80;99.90
23267;DHT22;11802;53.160;8.214;2022-11-15T10:40:22;13.90;99.90
23267;DHT22;11802;53.160;8.214;2022-11-15T10:45:39;13.90;99.90
23267;DHT22;11802;53.160;8.214;2022-11-15T10:50:42;13.80;99.90
23267;DHT22;11802;53.160;8.214;2022-11-15T10:53:17;13.70;99.90
23267;DHT22;11802;53.160;8.214;2022-11-15T10:55:47;13.60;99.90
23267;DHT22;11802;53.160;8.214;2022-11-15T10:58:32;13.60;99.90
23267;DHT22;11802;53.160;8.214;2022-11-15T11:01:13;13.60;99.90
23267;DHT22;11802;53.160;8.214;2022-11-15T11:03:41;13.60;99.90
23267;DHT22;11802;53.160;8.214;2022-11-15T11:06:13;13.60;99.90
23267;DHT22;11802;53.160;8.214;2022-11-15T11:08:39;13.70;99.90
23267;DHT22;11802;53.160;8.214;2022-11-15T11:11:06;13.80;99.90
23267;DHT22;11802;53.160;8.214;2022-11-15T11:13:36;13.90;99.90
23267;DHT22;11802;53.160;8.214;2022-11-15T11:18:36;14.30;99.90
23267;DHT22;11802;53.160;8.214;2022-11-15T11:21:09;14.30;99.90
23267;DHT22;11802;53.160;8.214;2022-11-15T11:23:53;14.30;99.90
23267;DHT22;11802;53.160;8.214;2022-11-15T11:29:04;14.50;99.90
23267;DHT22;11802;53.160;8.214;2022-11-15T11:37:30;14.60;99.90
23267;DHT22;11802;53.160;8.214;2022-11-15T11:48:13;14.50;99.90
23267;DHT22;11802;53.160;8.214;2022-11-15T11:50:41;14.50;99.90
23267;DHT22;11802;53.160;8.214;2022-11-15T11:55:57;14.80;99.90
23267;DHT22;11802;53.160;8.214;2022-11-15T12:01:18;15.10;99.90
23267;DHT22;11802;53.160;8.214;2022-11-15T12:06:36;15.40;99.90
23267;DHT22;11802;53.160;8.214;2022-11-15T12:15:02;15.30;99.90
23267;DHT22;11802;53.160;8.214;2022-11-15T12:17:30;15.10;99.90
23267;DHT22;11802;53.160;8.214;2022-11-15T12:20:00;15.20;99.90
23267;DHT22;11802;53.160;8.214;2022-11-15T12:23:02;15.20;99.90
23267;DHT22;11802;53.160;8.214;2022-11-15T12:25:36;15.30;99.90
23267;DHT22;11802;53.160;8.214;2022-11-15T12:31:05;15.40;99.90
23267;DHT22;11802;53.160;8.214;2022-11-15T12:33:41;15.40;99.90
23267;DHT22;11802;53.160;8.214;2022-11-15T12:38:55;15.40;99.90
23267;DHT22;11802;53.160;8.214;2022-11-15T12:41:24;15.50;99.90
23267;DHT22;11802;53.160;8.214;2022-11-15T12:43:50;15.60;99.90
23267;DHT22;11802;53.160;8.214;2022-11-15T12:46:22;15.70;99.90
23267;DHT22;11802;53.160;8.214;2022-11-15T12:48:50;15.90;99.90
23267;DHT22;11802;53.160;8.214;2022-11-15T12:51:19;16.00;99.90
23267;DHT22;11802;53.160;8.214;2022-11-15T12:53:44;15.90;99.90
23267;DHT22;11802;53.160;8.214;2022-11-15T13:09:51;14.90;99.90
23267;DHT22;11802;53.160;8.214;2022-11-15T13:14:56;14.80;99.90
23267;DHT22;11802;53.160;8.214;2022-11-15T13:27:57;14.50;99.90
23267;DHT22;11802;53.160;8.214;2022-11-15T13:30:25;14.60;99.90
23267;DHT22;11802;53.160;8.214;2022-11-15T13:32:52;14.60;99.90
23267;DHT22;11802;53.160;8.214;2022-11-15T13:35:27;14.70;99.90
23267;DHT22;11802;53.160;8.214;2022-11-15T13:37:54;14.80;99.90
23267;DHT22;11802;53.160;8.214;2022-11-15T13:40:29;15.00;99.90
23267;DHT22;11802;53.160;8.214;2022-11-15T13:42:58;15.20;99.90
23267;DHT22;11802;53.160;8.214;2022-11-15T13:45:24;15.30;99.90
23267;DHT22;11802;53.160;8.214;2022-11-15T13:47:57;15.40;99.90
23267;DHT22;11802;53.160;8.214;2022-11-15T13:50:29;15.20;99.90
23267;DHT22;11802;53.160;8.214;2022-11-15T13:52:59;15.20;99.90
23267;DHT22;11802;53.160;8.214;2022-11-15T13:55:26;15.10;99.90
23267;DHT22;11802;53.160;8.214;2022-11-15T13:57:56;14.90;99.90
23267;DHT22;11802;53.160;8.214;2022-11-15T14:00:27;14.80;99.90
23267;DHT22;11802;53.160;8.214;2022-11-15T14:02:56;14.70;99.90
23267;DHT22;11802;53.160;8.214;2022-11-15T14:05:24;14.50;99.90
23267;DHT22;11802;53.160;8.214;2022-11-15T14:08:21;14.40;99.90
23267;DHT22;11802;53.160;8.214;2022-11-15T14:10:48;14.20;99.90
23267;DHT22;11802;53.160;8.214;2022-11-15T14:13:32;14.10;99.90
23267;DHT22;11802;53.160;8.214;2022-11-15T14:16:18;14.00;99.90
23267;DHT22;11802;53.160;8.214;2022-11-15T14:18:52;13.90;99.90
23267;DHT22;11802;53.160;8.214;2022-11-15T14:21:19;13.80;99.90
23267;DHT22;11802;53.160;8.214;2022-11-15T14:23:44;13.70;99.90
23267;DHT22;11802;53.160;8.214;2022-11-15T14:26:31;13.60;99.90
23267;DHT22;11802;53.160;8.214;2022-11-15T14:28:57;13.50;99.90
23267;DHT22;11802;53.160;8.214;2022-11-15T14:31:22;13.40;99.90
23267;DHT22;11802;53.160;8.214;2022-11-15T14:33:48;13.30;99.90
23267;DHT22;11802;53.160;8.214;2022-11-15T14:36:20;13.20;99.90
23267;DHT22;11802;53.160;8.214;2022-11-15T14:38:46;13.10;99.90
23267;DHT22;11802;53.160;8.214;2022-11-15T14:41:23;13.00;99.90
23267;DHT22;11802;53.160;8.214;2022-11-15T14:43:50;12.90;99.90
23267;DHT22;11802;53.160;8.214;2022-11-15T14:46:16;12.80;99.90
23267;DHT22;11802;53.160;8.214;2022-11-15T14:48:41;12.70;99.90
23267;DHT22;11802;53.160;8.214;2022-11-15T14:51:15;12.60;99.90
23267;DHT22;11802;53.160;8.214;2022-11-15T14:53:43;12.60;99.90
23267;DHT22;11802;53.160;8.214;2022-11-15T14:56:09;12.40;99.90
23267;DHT22;11802;53.160;8.214;2022-11-15T14:58:35;12.30;99.90
23267;DHT22;11802;53.160;8.214;2022-11-15T15:01:19;12.30;99.90
23267;DHT22;11802;53.160;8.214;2022-11-15T15:03:45;12.20;99.90
23267;DHT22;11802;53.160;8.214;2022-11-15T15:06:11;12.10;99.90
23267;DHT22;11802;53.160;8.214;2022-11-15T15:08:38;12.10;99.90
23267;DHT22;11802;53.160;8.214;2022-11-15T15:11:28;12.10;99.90
23267;DHT22;11802;53.160;8.214;2022-11-15T15:13:55;12.00;99.90
23267;DHT22;11802;53.160;8.214;2022-11-15T15:16:23;11.90;99.90
23267;DHT22;11802;53.160;8.214;2022-11-15T15:18:49;11.80;99.90
23267;DHT22;11802;53.160;8.214;2022-11-15T15:21:26;11.80;99.90
23267;DHT22;11802;53.160;8.214;2022-11-15T15:23:53;11.80;99.90
23267;DHT22;11802;53.160;8.214;2022-11-15T15:26:19;11.70;99.90
23267;DHT22;11802;53.160;8.214;2022-11-15T15:28:45;11.60;99.90
23267;DHT22;11802;53.160;8.214;2022-11-15T15:31:10;11.50;99.90
23267;DHT22;11802;53.160;8.214;2022-11-15T15:33:36;11.50;99.90
23267;DHT22;11802;53.160;8.214;2022-11-15T15:36:02;11.40;99.90
23267;DHT22;11802;53.160;8.214;2022-11-15T15:38:28;11.30;99.90
23267;DHT22;11802;53.160;8.214;2022-11-15T15:40:53;11.30;99.90
23267;DHT22;11802;53.160;8.214;2022-11-15T15:43:20;11.20;99.90
23267;DHT22;11802;53.160;8.214;2022-11-15T15:45:45;11.20;99.90
23267;DHT22;11802;53.160;8.214;2022-11-15T15:48:12;11.20;99.90
23267;DHT22;11802;53.160;8.214;2022-11-15T15:50:38;11.10;99.90
23267;DHT22;11802;53.160;8.214;2022-11-15T15:53:05;11.10;99.90
23267;DHT22;11802;53.160;8.214;2022-11-15T15:55:31;11.00;99.90
23267;DHT22;11802;53.160;8.214;2022-11-15T15:57:56;10.90;99.90
23267;DHT22;11802;53.160;8.214;2022-11-15T16:00:23;10.80;99.90
23267;DHT22;11802;53.160;8.214;2022-11-15T16:02:50;10.70;99.90
23267;DHT22;11802;53.160;8.214;2022-11-15T16:05:16;10.70;99.90
23267;DHT22;11802;53.160;8.214;2022-11-15T16:07:43;10.60;99.90
23267;DHT22;11802;53.160;8.214;2022-11-15T16:10:23;10.60;99.90
23267;DHT22;11802;53.160;8.214;2022-11-15T16:12:50;10.50;99.90
23267;DHT22;11802;53.160;8.214;2022-11-15T16:15:17;10.50;99.90
23267;DHT22;11802;53.160;8.214;2022-11-15T16:17:54;10.40;99.90
23267;DHT22;11802;53.160;8.214;2022-11-15T16:20:39;10.30;99.90
23267;DHT22;11802;53.160;8.214;2022-11-15T16:23:07;10.30;99.90
23267;DHT22;11802;53.160;8.214;2022-11-15T16:25:41;10.30;99.90
23267;DHT22;11802;53.160;8.214;2022-11-15T16:28:27;10.20;99.90
23267;DHT22;11802;53.160;8.214;2022-11-15T16:31:10;10.20;99.90
23267;DHT22;11802;53.160;8.214;2022-11-15T16:33:36;10.20;99.90
23267;DHT22;11802;53.160;8.214;2022-11-15T16:36:03;10.20;99.90
23267;DHT22;11802;53.160;8.214;2022-11-15T16:38:30;10.20;99.90
23267;DHT22;11802;53.160;8.214;2022-11-15T16:40:55;10.20;99.90
23267;DHT22;11802;53.160;8.214;2022-11-15T16:43:21;10.10;99.90
23267;DHT22;11802;53.160;8.214;2022-11-15T16:45:46;10.20;99.90
23267;DHT22;11802;53.160;8.214;2022-11-15T16:48:31;10.10;99.90
23267;DHT22;11802;53.160;8.214;2022-11-15T16:50:59;10.10;99.90
23267;DHT22;11802;53.160;8.214;2022-11-15T16:53:26;10.00;99.90
23267;DHT22;11802;53.160;8.214;2022-11-15T16:55:52;10.00;99.90
23267;DHT22;11802;53.160;8.214;2022-11-15T16:58:17;10.00;99.90
23267;DHT22;11802;53.160;8.214;2022-11-15T17:00:43;10.00;99.90
23267;DHT22;11802;53.160;8.214;2022-11-15T17:03:09;10.00;99.90
23267;DHT22;11802;53.160;8.214;2022-11-15T17:05:34;10.00;99.90
23267;DHT22;11802;53.160;8.214;2022-11-15T17:08:00;10.10;99.90
23267;DHT22;11802;53.160;8.214;2022-11-15T17:10:26;10.10;99.90
23267;DHT22;11802;53.160;8.214;2022-11-15T17:12:53;10.20;99.90
23267;DHT22;11802;53.160;8.214;2022-11-15T17:15:19;10.20;99.90
23267;DHT22;11802;53.160;8.214;2022-11-15T17:17:53;10.20;99.90
23267;DHT22;11802;53.160;8.214;2022-11-15T17:20:20;10.20;99.90
23267;DHT22;11802;53.160;8.214;2022-11-15T17:22:46;10.30;99.90
23267;DHT22;11802;53.160;8.214;2022-11-15T17:25:12;10.30;99.90
23267;DHT22;11802;53.160;8.214;2022-11-15T17:27:38;10.30;99.90
23267;DHT22;11802;53.160;8.214;2022-11-15T17:30:05;10.40;99.90
23267;DHT22;11802;53.160;8.214;2022-11-15T17:32:31;10.40;99.90
23267;DHT22;11802;53.160;8.214;2022-11-15T17:34:56;10.40;99.90
23267;DHT22;11802;53.160;8.214;2022-11-15T17:37:22;10.40;99.90
23267;DHT22;11802;53.160;8.214;2022-11-15T17:39:47;10.50;99.90
23267;DHT22;11802;53.160;8.214;2022-11-15T17:42:13;10.50;99.90
23267;DHT22;11802;53.160;8.214;2022-11-15T17:44:39;10.50;99.90
23267;DHT22;11802;53.160;8.214;2022-11-15T17:47:04;10.60;99.90
23267;DHT22;11802;53.160;8.214;2022-11-15T17:49:29;10.60;99.90
23267;DHT22;11802;53.160;8.214;2022-11-15T17:51:55;10.60;99.90
23267;DHT22;11802;53.160;8.214;2022-11-15T17:54:21;10.60;99.90
23267;DHT22;11802;53.160;8.214;2022-11-15T17:56:46;10.60;99.90
23267;DHT22;11802;53.160;8.214;2022-11-15T17:59:13;10.60;99.90